Dallas, Texas
Current Conditions -  °F | °C
As of 3:53 AM on Tuesday 21 Oct 2014 (Local Time) from KDAL Reporting Station
Scattered Clouds Scattered Clouds  
Wind Chill: 62°   Ceiling: Unl
Heat Index: 62°   Visibility: 10mi
Dew Point: 58°   Wind: 0mph
Humidity: 86%   Direction: NA
Pressure: 30.04"   Gusts: NA
Location:  32.78°N, 96.79°W
Report Text: KDAL 210853Z 00000KT 10SM SCT300 17/14 A3004 RMK AO2 SLP166 T01670144 56002
Loading
Personal Weather Stations






























Interactive Weather Map New forecast layout! Learn more

10-Day Weather Forecast

Advertisements
Track Severe Weather on mobile